Date,TemperatureHighF,TemperatureAvgF,TemperatureLowF,DewpointHighF,DewpointAvgF,DewpointLowF,HumidityHigh,HumidityAvg,HumidityLow,PressureMaxIn,PressureMinIn,WindSpeedMaxMPH,WindSpeedAvgMPH,GustSpeedMaxMPH,PrecipitationSumIn
2013-2-1,68.8,54.0,44.1,47.0,43.6,41.0,92,71,41,30.22,30.11,5,0,0,0.00
2013-2-2,60.1,51.0,44.9,48.0,46.5,43.0,94,85,62,30.29,30.20,3,0,0,0.00
2013-2-3,59.3,49.3,41.8,45.0,42.6,40.0,94,79,53,30.25,30.14,4,0,0,0.00
2013-2-4,58.4,49.0,42.6,48.0,45.8,41.0,96,89,67,30.17,30.07,3,0,0,0.00
2013-2-5,60.9,50.4,43.1,48.0,43.4,40.0,91,77,57,30.15,30.06,4,0,0,0.00
2013-2-6,59.6,48.6,40.9,44.0,40.3,38.0,91,75,48,30.20,30.12,4,0,0,0.00
2013-2-7,57.2,48.9,42.9,46.0,41.6,37.0,92,77,54,30.17,30.00,4,0,0,0.08
2013-2-8,56.3,46.9,40.2,43.0,38.9,33.0,94,75,51,30.02,29.93,4,0,0,0.02
2013-2-9,62.0,48.2,37.6,34.0,30.5,22.0,78,54,24,30.09,29.98,2,0,0,0.00
2013-2-10,61.6,47.5,37.6,40.0,35.4,31.0,86,65,35,30.11,30.03,3,0,0,0.00
2013-2-11,66.6,51.2,40.9,45.0,33.6,24.0,93,56,22,30.23,30.06,3,0,0,0.00
2013-2-12,62.9,49.9,41.6,46.0,42.3,37.0,95,78,43,30.35,30.23,3,0,0,0.00
2013-2-13,60.7,48.9,41.9,48.0,43.5,39.0,96,83,50,30.34,30.23,2,0,0,0.00
2013-2-14,70.1,54.0,43.1,49.0,44.3,42.0,97,73,37,30.24,30.16,2,0,0,0.00
2013-2-15,74.2,61.7,47.9,43.0,36.5,30.0,80,41,26,30.26,30.18,12,1,0,0.00
2013-2-16,71.5,55.6,46.5,48.0,43.9,36.0,91,67,40,30.23,30.06,3,0,0,0.00
2013-2-17,62.1,51.2,43.5,47.0,43.9,41.0,95,78,47,30.06,29.98,2,0,0,0.00
2013-2-18,55.3,49.1,44.2,45.0,40.3,36.0,91,72,54,30.04,29.96,7,1,0,0.00
2013-2-19,49.6,45.1,38.6,44.0,38.2,33.0,92,77,57,29.97,29.75,5,0,0,0.32
2013-2-20,61.2,47.3,36.6,40.0,35.3,32.0,86,66,37,30.06,29.84,2,0,0,0.00
2013-2-21,63.5,49.0,38.2,38.0,34.9,27.0,89,63,26,30.16,30.05,3,0,0,0.00
2013-2-22,62.6,50.0,40.3,45.0,40.2,35.0,89,71,36,30.25,30.16,5,0,0,0.00
2013-2-23,62.1,51.5,43.8,47.0,37.3,28.0,91,62,28,30.26,30.17,4,0,0,0.00
2013-2-24,65.2,51.6,43.1,41.0,29.8,19.0,77,47,18,30.25,30.18,4,0,0,0.00
2013-2-25,65.3,51.6,41.8,45.0,41.8,38.0,93,72,43,30.26,30.18,6,0,0,0.00
2013-2-26,69.6,52.4,40.3,41.0,33.6,21.0,81,54,16,30.21,30.15,2,0,0,0.00
2013-2-27,66.4,51.9,41.1,45.0,40.3,32.0,87,67,35,30.36,30.20,3,0,0,0.00
2013-2-28,66.4,54.2,45.7,51.0,47.4,43.0,93,79,54,30.45,30.36,4,0,0,0.00